Time;durP1;ratioP1;P1;durP2;ratioP2;P2;SDS_P1;SDS_P2;PMS_P1;PMS_P2;Temp;Humidity;BMP_temperature;BMP_pressure;BME280_temperature;BME280_humidity;BME280_pressure;Samples;Min_cycle;Max_cycle;Signal;HPM_P1;HPM_P2
2023/07/14 00:00:26;;;;;;;4.65;1.10;;;22.80;91.40;;;;;;5054461;28;20037;-73
2023/07/14 00:02:53;;;;;;;2.20;0.90;;;22.70;91.50;;;;;;5054958;28;20025;-73
2023/07/14 00:05:27;;;;;;;4.65;0.95;;;22.70;91.60;;;;;;5054989;28;20090;-73
2023/07/14 00:07:54;;;;;;;3.75;1.00;;;22.70;91.50;;;;;;5054689;28;20013;-73
2023/07/14 00:10:24;;;;;;;5.93;1.00;;;22.60;91.30;;;;;;5054401;28;20497;-73
2023/07/14 00:12:53;;;;;;;3.83;1.13;;;22.60;91.30;;;;;;5054710;28;20024;-73
2023/07/14 00:15:23;;;;;;;3.40;0.88;;;22.60;91.20;;;;;;5054666;28;20053;-73
2023/07/14 00:17:52;;;;;;;4.20;0.73;;;22.60;91.20;;;;;;5054636;28;20139;-73
2023/07/14 00:20:26;;;;;;;2.03;0.90;;;22.60;91.10;;;;;;5054527;28;20033;-73
2023/07/14 00:22:53;;;;;;;2.20;0.80;;;22.50;90.90;;;;;;5054386;28;20374;-72
2023/07/14 00:25:19;;;;;;;1.67;1.27;;;22.50;90.90;;;;;;5054421;28;20532;-73
2023/07/14 00:27:45;;;;;;;1.23;0.65;;;22.50;90.80;;;;;;5054331;28;20044;-73
2023/07/14 00:30:18;;;;;;;1.85;1.00;;;22.50;90.70;;;;;;5054448;28;20021;-73
2023/07/14 00:32:45;;;;;;;2.95;0.82;;;22.50;90.70;;;;;;5054384;28;20056;-72
2023/07/14 00:35:24;;;;;;;2.13;0.85;;;22.50;90.80;;;;;;5053807;28;20033;-73
2023/07/14 00:37:51;;;;;;;3.70;0.80;;;22.40;90.80;;;;;;5054318;28;20021;-72
2023/07/14 00:40:26;;;;;;;0.98;0.75;;;22.40;91.00;;;;;;5054021;28;20560;-73
2023/07/14 00:42:57;;;;;;;3.88;0.95;;;22.40;91.10;;;;;;5053919;28;20017;-73
2023/07/14 00:45:26;;;;;;;1.38;0.90;;;22.40;91.30;;;;;;5053911;28;20037;-73
2023/07/14 00:48:04;;;;;;;4.35;0.98;;;22.30;91.40;;;;;;5053811;28;20488;-73
2023/07/14 00:50:32;;;;;;;5.07;1.05;;;22.30;91.30;;;;;;5053968;28;20060;-73
2023/07/14 00:53:03;;;;;;;2.78;0.90;;;22.30;91.30;;;;;;5054024;28;20462;-73
2023/07/14 00:55:40;;;;;;;1.85;0.68;;;22.30;91.30;;;;;;5053880;28;20017;-73
2023/07/14 00:58:20;;;;;;;4.38;1.05;;;22.30;91.40;;;;;;5052455;28;20442;-73
2023/07/14 01:01:06;;;;;;;4.32;0.90;;;22.30;91.50;;;;;;5050825;28;20495;-73
2023/07/14 01:03:32;;;;;;;6.55;0.90;;;22.20;91.70;;;;;;5050818;28;20504;-73
2023/07/14 01:06:02;;;;;;;4.20;1.10;;;22.20;91.70;;;;;;5053096;28;20056;-73
2023/07/14 01:08:29;;;;;;;2.33;1.17;;;22.20;91.60;;;;;;5053443;28;20044;-73
2023/07/14 01:10:56;;;;;;;8.05;1.10;;;22.10;91.70;;;;;;5053404;28;20482;-73
2023/07/14 01:13:23;;;;;;;3.58;1.05;;;22.20;91.80;;;;;;5052715;28;20047;-73
2023/07/14 01:15:50;;;;;;;1.40;1.08;;;22.20;91.90;;;;;;5035376;28;20454;-73
2023/07/14 01:18:16;;;;;;;6.22;1.10;;;22.20;92.00;;;;;;5053360;28;20029;-73
2023/07/14 01:20:42;;;;;;;1.92;1.15;;;22.20;92.00;;;;;;5052916;28;20554;-73
2023/07/14 01:23:16;;;;;;;5.07;1.00;;;22.10;92.00;;;;;;5053254;28;20025;-73
2023/07/14 01:25:52;;;;;;;2.83;1.23;;;22.10;92.00;;;;;;5053322;28;20466;-72
2023/07/14 01:28:19;;;;;;;6.75;1.30;;;22.10;92.10;;;;;;5052762;28;20025;-72
2023/07/14 01:30:45;;;;;;;2.65;1.35;;;22.10;92.20;;;;;;5053326;28;20103;-73
2023/07/14 01:33:17;;;;;;;3.60;1.15;;;22.10;92.20;;;;;;5053250;28;20150;-72
2023/07/14 01:35:53;;;;;;;2.70;1.00;;;22.10;92.20;;;;;;5052870;28;20025;-73
2023/07/14 01:38:20;;;;;;;7.05;1.30;;;22.10;92.10;;;;;;5052805;28;20035;-73
2023/07/14 01:40:46;;;;;;;4.15;1.10;;;22.10;92.20;;;;;;5053018;28;20029;-72
2023/07/14 01:43:12;;;;;;;7.25;1.15;;;22.00;92.10;;;;;;5052899;28;20027;-73
2023/07/14 01:46:01;;;;;;;1.83;1.00;;;22.00;92.00;;;;;;5052816;28;20020;-73
2023/07/14 01:48:39;;;;;;;3.92;1.10;;;22.00;91.80;;;;;;5052977;28;20029;-73
2023/07/14 01:51:10;;;;;;;3.58;1.00;;;22.00;91.50;;;;;;5053021;28;20028;-73
2023/07/14 01:53:43;;;;;;;3.40;0.90;;;22.00;91.40;;;;;;5052955;28;20024;-73
2023/07/14 01:56:12;;;;;;;4.22;1.40;;;22.00;91.40;;;;;;5052871;28;20020;-72
2023/07/14 01:58:51;;;;;;;2.95;1.10;;;21.90;91.30;;;;;;5052689;28;20025;-73
2023/07/14 02:01:19;;;;;;;10.30;1.30;;;21.90;91.30;;;;;;5052700;28;20557;-73
2023/07/14 02:03:50;;;;;;;2.00;1.00;;;21.90;91.30;;;;;;5052612;28;20059;-73
2023/07/14 02:06:16;;;;;;;6.00;1.27;;;21.90;91.40;;;;;;5052675;28;20025;-73
2023/07/14 02:08:44;;;;;;;4.65;1.00;;;21.80;91.40;;;;;;5052719;28;20071;-73
2023/07/14 02:11:17;;;;;;;4.90;1.25;;;21.80;91.30;;;;;;5052509;28;20029;-73
2023/07/14 02:13:44;;;;;;;3.78;1.73;;;21.80;91.20;;;;;;5052692;28;20386;-73
2023/07/14 02:16:15;;;;;;;5.75;0.88;;;21.80;91.10;;;;;;5052548;28;20041;-73
2023/07/14 02:18:44;;;;;;;3.00;0.90;;;21.80;91.00;;;;;;5034949;28;20068;-73
2023/07/14 02:21:12;;;;;;;6.63;1.52;;;21.70;90.90;;;;;;5053139;28;20040;-73
2023/07/14 02:23:40;;;;;;;3.10;1.00;;;21.70;91.00;;;;;;5052645;28;20021;-73
2023/07/14 02:26:14;;;;;;;1.25;0.93;;;21.70;90.90;;;;;;5056390;28;20025;-73
2023/07/14 02:28:40;;;;;;;1.67;1.00;;;21.70;90.80;;;;;;5056439;28;20063;-72
2023/07/14 02:31:27;;;;;;;1.55;1.02;;;21.70;91.00;;;;;;5056563;28;20052;-73
2023/07/14 02:33:53;;;;;;;3.40;0.98;;;21.70;90.80;;;;;;5056378;28;20028;-73
2023/07/14 02:36:19;;;;;;;1.08;0.90;;;21.70;90.80;;;;;;5056072;28;20029;-72
2023/07/14 02:38:45;;;;;;;4.43;1.00;;;21.70;90.70;;;;;;5056182;28;20017;-72
2023/07/14 02:41:28;;;;;;;5.90;1.15;;;21.70;90.80;;;;;;5056210;28;20036;-72
2023/07/14 02:43:56;;;;;;;2.63;1.10;;;21.70;90.70;;;;;;5056327;28;20029;-73
2023/07/14 02:46:41;;;;;;;2.50;0.90;;;21.70;90.80;;;;;;5056100;28;20029;-73
2023/07/14 02:49:07;;;;;;;2.60;0.90;;;21.60;90.80;;;;;;5038206;28;20036;-73
2023/07/14 02:51:33;;;;;;;5.15;1.17;;;21.60;90.80;;;;;;5055878;28;20021;-72
2023/07/14 02:53:58;;;;;;;2.30;0.95;;;21.60;90.70;;;;;;5056208;28;20087;-73
2023/07/14 02:56:24;;;;;;;2.95;0.95;;;21.50;90.70;;;;;;5056163;28;20021;-73
2023/07/14 02:58:50;;;;;;;7.75;1.10;;;21.60;90.80;;;;;;5055716;28;20317;-73
2023/07/14 03:01:18;;;;;;;1.75;1.00;;;21.60;90.80;;;;;;5055797;28;20029;-73
2023/07/14 03:03:46;;;;;;;7.97;1.10;;;21.50;90.80;;;;;;5055862;28;20021;-73
2023/07/14 03:06:14;;;;;;;3.60;1.42;;;21.50;90.80;;;;;;5055762;28;20486;-72
2023/07/14 03:08:40;;;;;;;4.07;1.13;;;21.50;90.80;;;;;;5054976;28;20384;-73
2023/07/14 03:11:06;;;;;;;4.28;1.10;;;21.50;90.70;;;;;;5052923;28;20029;-73
2023/07/14 03:13:31;;;;;;;7.05;1.20;;;21.50;90.60;;;;;;5053188;28;20108;-73
2023/07/14 03:15:57;;;;;;;5.72;1.08;;;21.50;90.60;;;;;;5055436;28;20060;-73
2023/07/14 03:18:23;;;;;;;4.30;1.10;;;21.50;90.60;;;;;;5055527;28;20104;-72
2023/07/14 03:21:03;;;;;;;1.45;1.05;;;21.50;90.70;;;;;;5055313;28;20021;-72
2023/07/14 03:23:30;;;;;;;6.20;1.20;;;21.50;90.80;;;;;;5055301;28;20029;-73
2023/07/14 03:26:01;;;;;;;1.85;1.20;;;21.50;90.80;;;;;;5055247;28;20041;-72
2023/07/14 03:28:27;;;;;;;5.90;1.20;;;21.50;90.60;;;;;;5055404;28;20040;-73
2023/07/14 03:30:52;;;;;;;3.42;1.02;;;21.50;90.70;;;;;;5037466;28;20032;-73
2023/07/14 03:33:19;;;;;;;6.22;1.10;;;21.50;90.80;;;;;;5055544;28;20375;-73
2023/07/14 03:35:44;;;;;;;3.83;1.00;;;21.40;90.90;;;;;;5054861;28;20021;-73
2023/07/14 03:38:10;;;;;;;3.47;1.00;;;21.50;90.70;;;;;;5055525;28;20128;-73
2023/07/14 03:40:36;;;;;;;6.55;1.30;;;21.50;90.70;;;;;;5054967;28;20017;-72
2023/07/14 03:43:05;;;;;;;3.72;1.10;;;21.40;90.70;;;;;;5053912;28;20037;-73
2023/07/14 03:45:32;;;;;;;3.90;1.10;;;21.40;90.60;;;;;;5055049;28;20031;-73
2023/07/14 03:47:58;;;;;;;5.68;1.30;;;21.40;90.60;;;;;;5054944;28;20501;-73
2023/07/14 03:50:24;;;;;;;4.82;1.13;;;21.40;90.50;;;;;;5055077;28;20029;-73
2023/07/14 03:52:49;;;;;;;8.23;1.10;;;21.40;90.60;;;;;;5055033;28;20096;-73
2023/07/14 03:55:15;;;;;;;3.63;1.00;;;21.40;90.70;;;;;;5054804;28;20057;-73
2023/07/14 03:57:41;;;;;;;2.95;1.50;;;21.40;90.70;;;;;;5055061;28;20048;-73
2023/07/14 04:00:13;;;;;;;4.38;1.23;;;21.40;90.80;;;;;;5054685;28;20027;-73
2023/07/14 04:02:43;;;;;;;2.33;1.00;;;21.40;90.90;;;;;;5054817;28;20025;-73
2023/07/14 04:05:10;;;;;;;5.32;1.10;;;21.40;90.80;;;;;;5054844;28;20071;-73
2023/07/14 04:07:37;;;;;;;3.67;1.17;;;21.40;90.70;;;;;;5054566;28;20430;-73
2023/07/14 04:10:04;;;;;;;5.65;1.88;;;21.40;90.70;;;;;;5054383;28;20082;-73
2023/07/14 04:12:31;;;;;;;1.98;0.98;;;21.30;90.70;;;;;;5054488;28;20105;-73
2023/07/14 04:14:57;;;;;;;2.53;1.00;;;21.30;90.70;;;;;;5036626;28;20055;-73
2023/07/14 04:17:23;;;;;;;3.58;1.10;;;21.30;90.70;;;;;;5054387;28;20045;-73
2023/07/14 04:19:50;;;;;;;8.18;1.10;;;21.30;90.60;;;;;;5054304;28;20059;-73
2023/07/14 04:22:16;;;;;;;1.83;1.20;;;21.30;90.70;;;;;;5054130;28;20510;-73
2023/07/14 04:24:41;;;;;;;4.00;1.15;;;21.30;90.70;;;;;;5036359;28;20028;-73
2023/07/14 04:27:07;;;;;;;3.00;1.02;;;21.30;90.70;;;;;;5054303;28;20025;-73
2023/07/14 04:29:33;;;;;;;3.10;1.60;;;21.30;90.60;;;;;;5054259;28;20532;-72
2023/07/14 04:31:59;;;;;;;3.88;1.30;;;21.40;90.60;;;;;;5054164;28;20082;-73
2023/07/14 04:34:27;;;;;;;7.38;1.20;;;21.40;90.60;;;;;;5054095;28;20029;-73
2023/07/14 04:36:53;;;;;;;1.52;1.00;;;21.40;90.50;;;;;;5053841;28;20100;-73
2023/07/14 04:39:19;;;;;;;1.80;1.00;;;21.40;90.60;;;;;;5054149;28;20071;-73
2023/07/14 04:41:45;;;;;;;3.75;1.20;;;21.40;90.60;;;;;;5053825;28;20057;-73
2023/07/14 04:44:16;;;;;;;1.70;0.90;;;21.40;90.60;;;;;;5054198;28;20403;-73
2023/07/14 04:46:43;;;;;;;3.42;0.95;;;21.40;90.50;;;;;;5053193;28;20111;-73
2023/07/14 04:49:10;;;;;;;2.45;1.27;;;21.40;90.50;;;;;;5053696;28;20017;-72
2023/07/14 04:51:37;;;;;;;3.33;1.17;;;21.50;90.50;;;;;;5054010;28;20056;-72
2023/07/14 04:54:03;;;;;;;2.42;1.02;;;21.50;90.50;;;;;;5035890;28;20064;-73
2023/07/14 04:56:30;;;;;;;2.53;1.08;;;21.50;90.60;;;;;;5053867;28;20071;-73
2023/07/14 04:58:56;;;;;;;1.05;0.90;;;21.50;90.70;;;;;;5053814;28;20028;-73
2023/07/14 05:01:22;;;;;;;6.40;1.15;;;21.50;90.60;;;;;;5053411;28;20411;-73
2023/07/14 05:03:48;;;;;;;2.72;1.00;;;21.50;90.60;;;;;;5053518;28;20017;-73
2023/07/14 05:06:14;;;;;;;3.67;1.30;;;21.60;90.60;;;;;;5053429;28;20033;-73
2023/07/14 05:08:39;;;;;;;5.28;1.00;;;21.60;90.50;;;;;;5053790;28;20032;-73
2023/07/14 05:11:05;;;;;;;2.78;1.17;;;21.70;90.50;;;;;;5053410;28;20025;-73
2023/07/14 05:13:33;;;;;;;3.22;1.10;;;21.70;90.50;;;;;;5053457;28;20057;-73
2023/07/14 05:15:59;;;;;;;1.27;1.10;;;21.70;90.60;;;;;;5053279;28;20041;-73
2023/07/14 05:18:25;;;;;;;5.13;1.42;;;21.70;90.60;;;;;;5053206;28;20036;-73
2023/07/14 05:20:56;;;;;;;4.28;1.23;;;21.70;90.50;;;;;;5052934;28;20041;-73
2023/07/14 05:23:22;;;;;;;3.92;1.02;;;21.80;90.50;;;;;;5053213;28;20021;-73
2023/07/14 05:25:48;;;;;;;8.13;1.85;;;21.80;90.60;;;;;;5053377;28;20040;-73
2023/07/14 05:28:13;;;;;;;3.47;1.17;;;21.80;90.60;;;;;;5053396;28;20021;-72
2023/07/14 05:30:39;;;;;;;5.35;2.25;;;21.80;90.80;;;;;;5053320;28;20025;-72
2023/07/14 05:33:05;;;;;;;4.50;1.30;;;21.90;91.10;;;;;;5053191;28;20060;-73
2023/07/14 05:35:31;;;;;;;4.85;1.05;;;21.90;91.30;;;;;;5053206;28;20032;-73
2023/07/14 05:37:57;;;;;;;3.20;1.20;;;21.90;91.20;;;;;;5053068;28;20101;-73
2023/07/14 05:40:22;;;;;;;5.72;1.80;;;22.00;91.20;;;;;;5053055;28;20112;-73
2023/07/14 05:42:48;;;;;;;5.65;1.33;;;22.00;91.10;;;;;;5052999;28;20025;-72
2023/07/14 05:45:15;;;;;;;1.65;1.10;;;22.00;90.90;;;;;;5052987;28;20441;-73
2023/07/14 05:47:49;;;;;;;5.05;1.20;;;22.10;90.80;;;;;;5052894;28;20056;-73
2023/07/14 05:50:16;;;;;;;2.90;1.20;;;22.10;90.70;;;;;;5052802;28;20017;-74
2023/07/14 05:52:42;;;;;;;3.58;1.38;;;22.10;90.60;;;;;;5052853;28;20104;-73
2023/07/14 05:55:08;;;;;;;3.72;1.10;;;22.20;90.30;;;;;;5052869;28;20051;-73
2023/07/14 05:57:37;;;;;;;1.15;1.00;;;22.20;90.00;;;;;;5052560;28;20105;-73
2023/07/14 06:00:16;;;;;;;4.80;1.17;;;22.30;89.60;;;;;;5052540;28;20029;-73
2023/07/14 06:02:43;;;;;;;3.67;1.08;;;22.40;88.90;;;;;;5052824;28;20056;-73
2023/07/14 06:05:10;;;;;;;3.72;0.90;;;22.40;88.50;;;;;;5052582;28;20371;-73
2023/07/14 06:07:37;;;;;;;7.05;1.20;;;22.50;88.40;;;;;;5052675;28;20475;-73
2023/07/14 06:10:04;;;;;;;2.65;0.98;;;22.50;88.00;;;;;;5052787;28;20045;-72
2023/07/14 06:12:30;;;;;;;3.22;0.90;;;22.50;87.60;;;;;;5052728;28;20053;-73
2023/07/14 06:14:55;;;;;;;2.20;1.08;;;22.60;87.30;;;;;;5052642;28;20057;-73
2023/07/14 06:17:21;;;;;;;2.97;0.85;;;22.60;86.80;;;;;;5052600;28;20049;-73
2023/07/14 06:19:47;;;;;;;1.50;1.02;;;22.70;86.30;;;;;;5052741;28;20053;-73
2023/07/14 06:22:13;;;;;;;4.10;1.23;;;22.80;86.10;;;;;;5052582;28;20033;-72
2023/07/14 06:24:40;;;;;;;1.40;0.90;;;22.80;85.90;;;;;;5052269;28;20525;-73
2023/07/14 06:27:06;;;;;;;1.55;0.90;;;22.80;85.50;;;;;;5052436;28;20115;-72
2023/07/14 06:29:33;;;;;;;1.52;0.70;;;22.90;84.90;;;;;;5052377;28;20482;-73
2023/07/14 06:31:59;;;;;;;2.28;0.93;;;22.90;83.50;;;;;;5052432;28;20021;-73
2023/07/14 06:34:26;;;;;;;1.50;1.00;;;23.00;83.50;;;;;;5052287;28;20029;-72
2023/07/14 06:36:52;;;;;;;2.15;1.00;;;23.10;82.10;;;;;;5052293;28;20546;-73
2023/07/14 06:39:21;;;;;;;1.25;0.90;;;23.10;81.40;;;;;;5052295;28;20021;-73
2023/07/14 06:41:47;;;;;;;1.40;0.90;;;23.20;81.50;;;;;;5052325;28;20039;-73
2023/07/14 06:44:14;;;;;;;3.30;0.93;;;23.20;81.40;;;;;;5051003;28;20052;-73
2023/07/14 06:46:40;;;;;;;1.95;1.10;;;23.30;80.60;;;;;;5052305;28;20024;-73
2023/07/14 06:49:06;;;;;;;1.40;0.77;;;23.30;80.00;;;;;;5052155;28;20021;-73
2023/07/14 06:51:32;;;;;;;4.15;1.15;;;23.40;79.50;;;;;;5052308;28;20479;-73
2023/07/14 06:53:57;;;;;;;2.15;1.00;;;23.40;79.40;;;;;;5052348;28;20021;-74
2023/07/14 06:56:23;;;;;;;3.63;1.15;;;23.50;79.60;;;;;;5052175;28;20021;-74
2023/07/14 06:58:49;;;;;;;3.92;1.10;;;23.60;77.60;;;;;;5052007;28;20036;-72
2023/07/14 07:01:18;;;;;;;2.15;1.00;;;23.60;77.50;;;;;;5052268;28;20029;-72
2023/07/14 07:03:44;;;;;;;2.20;1.13;;;23.70;78.60;;;;;;5052331;28;20463;-72
2023/07/14 07:06:10;;;;;;;3.45;1.08;;;23.70;78.90;;;;;;5052253;28;20083;-72
2023/07/14 07:08:36;;;;;;;1.33;1.10;;;23.70;77.80;;;;;;5052381;28;20479;-72
2023/07/14 07:11:02;;;;;;;2.85;1.10;;;23.80;77.20;;;;;;5053506;28;20505;-73
2023/07/14 07:13:27;;;;;;;3.03;1.02;;;23.90;77.20;;;;;;5037628;28;20025;-73
2023/07/14 07:15:53;;;;;;;2.55;1.33;;;23.90;77.30;;;;;;5055350;28;20069;-72
2023/07/14 07:18:24;;;;;;;1.92;1.05;;;24.00;77.20;;;;;;5055493;28;20029;-73
2023/07/14 07:20:50;;;;;;;4.10;1.15;;;24.00;76.90;;;;;;5055252;28;20087;-73
2023/07/14 07:23:16;;;;;;;4.93;2.30;;;24.10;76.70;;;;;;5055503;28;20025;-72
2023/07/14 07:25:50;;;;;;;2.70;1.15;;;24.10;77.00;;;;;;5055508;28;20024;-72
2023/07/14 07:28:16;;;;;;;1.20;1.10;;;24.20;75.50;;;;;;5055199;28;20024;-72
2023/07/14 07:30:43;;;;;;;3.97;0.90;;;24.20;75.40;;;;;;5055282;28;20031;-72
2023/07/14 07:33:09;;;;;;;2.97;1.02;;;24.30;75.30;;;;;;5055330;28;20037;-72
2023/07/14 07:35:38;;;;;;;4.85;1.05;;;24.30;74.90;;;;;;5055233;28;20429;-73
2023/07/14 07:38:04;;;;;;;3.03;1.20;;;24.40;73.00;;;;;;5055306;28;20028;-72
2023/07/14 07:40:31;;;;;;;2.22;0.98;;;24.50;71.50;;;;;;5055260;28;20095;-72
2023/07/14 07:42:57;;;;;;;3.65;1.38;;;24.50;70.20;;;;;;5055330;28;20112;-72
2023/07/14 07:45:23;;;;;;;2.20;1.27;;;24.60;69.60;;;;;;5055051;28;20450;-72
2023/07/14 07:47:49;;;;;;;6.93;1.27;;;24.70;68.40;;;;;;5055051;28;20025;-72
2023/07/14 07:50:15;;;;;;;2.15;1.23;;;24.70;67.90;;;;;;5053815;28;20025;-72
2023/07/14 07:52:41;;;;;;;8.30;1.60;;;24.80;66.70;;;;;;5054868;28;20032;-72
2023/07/14 07:55:07;;;;;;;5.30;1.40;;;24.80;67.80;;;;;;5055056;28;20467;-72
2023/07/14 07:57:32;;;;;;;6.55;1.50;;;24.90;67.30;;;;;;5054830;28;20032;-72
2023/07/14 07:59:59;;;;;;;5.68;1.30;;;24.90;68.40;;;;;;5055060;28;20032;-72
2023/07/14 08:02:25;;;;;;;6.93;2.10;;;25.00;67.60;;;;;;5054906;28;20544;-72
2023/07/14 08:04:51;;;;;;;2.22;1.05;;;25.00;66.30;;;;;;5054634;28;20014;-73
2023/07/14 08:07:16;;;;;;;2.70;1.20;;;25.10;66.10;;;;;;5054488;28;20040;-72
2023/07/14 08:09:43;;;;;;;2.33;1.25;;;25.10;66.40;;;;;;5054515;28;20025;-72
2023/07/14 08:12:09;;;;;;;2.65;1.20;;;25.10;67.20;;;;;;5054513;28;20438;-72
2023/07/14 08:14:50;;;;;;;6.72;1.42;;;25.10;66.90;;;;;;5054238;28;20467;-72
2023/07/14 08:17:15;;;;;;;2.67;1.33;;;25.20;66.50;;;;;;5054073;28;20073;-73
2023/07/14 08:19:41;;;;;;;1.60;1.10;;;25.20;66.00;;;;;;5054456;28;20056;-73
2023/07/14 08:22:07;;;;;;;4.00;1.00;;;25.20;65.00;;;;;;5054361;28;20041;-73
2023/07/14 08:24:32;;;;;;;2.53;1.20;;;25.20;65.40;;;;;;5054242;28;20018;-72
2023/07/14 08:26:58;;;;;;;3.13;1.20;;;25.30;65.90;;;;;;5054027;28;20090;-72
2023/07/14 08:29:24;;;;;;;4.40;1.38;;;25.30;66.30;;;;;;5054454;28;20025;-72
2023/07/14 08:31:49;;;;;;;2.53;1.35;;;25.40;66.70;;;;;;5054223;28;20032;-72
2023/07/14 08:34:15;;;;;;;4.50;1.50;;;25.40;66.90;;;;;;5054050;28;20151;-72
2023/07/14 08:36:41;;;;;;;6.35;1.38;;;25.50;66.60;;;;;;5054273;28;20063;-72
2023/07/14 08:39:07;;;;;;;1.83;1.00;;;25.60;66.20;;;;;;5054213;28;20028;-72
2023/07/14 08:41:38;;;;;;;2.20;1.17;;;25.70;66.70;;;;;;5053841;28;20051;-73
2023/07/14 08:44:25;;;;;;;1.45;1.20;;;25.70;66.00;;;;;;5054020;28;20150;-72
2023/07/14 08:46:59;;;;;;;4.50;1.65;;;25.80;65.50;;;;;;5053835;28;20033;-73
2023/07/14 08:49:31;;;;;;;4.82;1.60;;;25.90;66.00;;;;;;5053948;28;20068;-72
2023/07/14 08:52:10;;;;;;;2.90;1.20;;;25.90;66.80;;;;;;5054007;28;20025;-72
2023/07/14 08:54:49;;;;;;;3.40;1.40;;;26.00;64.50;;;;;;5035667;28;20471;-72
2023/07/14 08:57:22;;;;;;;1.42;1.13;;;26.10;63.20;;;;;;5053395;28;20029;-73
2023/07/14 08:59:53;;;;;;;3.33;1.30;;;26.20;64.20;;;;;;5053900;28;20025;-72
2023/07/14 09:02:37;;;;;;;2.40;1.40;;;26.20;64.00;;;;;;5053803;28;20538;-72
2023/07/14 09:05:10;;;;;;;2.67;1.00;;;26.20;63.60;;;;;;5053269;28;20028;-73
2023/07/14 09:07:37;;;;;;;2.20;1.20;;;26.40;64.10;;;;;;5053595;28;20017;-72
2023/07/14 09:10:03;;;;;;;4.07;1.33;;;26.40;63.50;;;;;;5053568;28;20067;-73
2023/07/14 09:12:53;;;;;;;1.52;1.08;;;26.40;61.60;;;;;;5053664;28;20360;-73
2023/07/14 09:18:06;;;;;;;2.90;1.45;;;26.50;61.90;;;;;;5077824;22;20413;-72
2023/07/14 09:20:53;;;;;;;1.88;1.20;;;26.60;61.10;;;;;;5073417;28;20032;-72
2023/07/14 09:24:03;;;;;;;2.60;1.05;;;26.60;61.20;;;;;;5073418;28;20108;-72
2023/07/14 09:26:39;;;;;;;2.80;1.27;;;26.70;61.40;;;;;;5052771;28;20482;-72
2023/07/14 09:29:17;;;;;;;1.90;1.15;;;26.70;60.10;;;;;;5073366;28;20474;-72
2023/07/14 09:31:46;;;;;;;3.70;1.35;;;26.80;60.70;;;;;;5073254;28;20146;-72
2023/07/14 09:34:35;;;;;;;2.55;1.35;;;26.90;60.70;;;;;;5054825;28;20449;-72
2023/07/14 09:37:08;;;;;;;2.42;1.30;;;26.90;62.20;;;;;;5073064;28;20032;-72
2023/07/14 09:39:42;;;;;;;2.10;1.30;;;27.00;61.10;;;;;;5073078;28;20595;-72
2023/07/14 09:42:24;;;;;;;3.70;1.40;;;27.00;61.20;;;;;;5073147;28;20037;-72
2023/07/14 09:44:50;;;;;;;2.22;1.13;;;27.00;60.60;;;;;;5072822;28;20020;-72
2023/07/14 09:47:18;;;;;;;4.63;1.50;;;27.10;60.90;;;;;;5072722;28;20032;-72
2023/07/14 09:49:51;;;;;;;7.13;1.30;;;27.10;61.50;;;;;;5073281;28;20095;-72
2023/07/14 09:52:23;;;;;;;6.45;1.45;;;27.20;61.20;;;;;;5072989;28;20025;-72
2023/07/14 09:54:51;;;;;;;2.00;1.40;;;27.20;61.50;;;;;;5072845;28;20021;-72
2023/07/14 09:57:18;;;;;;;2.42;1.00;;;27.20;61.70;;;;;;5072769;28;20444;-72
2023/07/14 09:59:53;;;;;;;3.05;1.48;;;27.30;60.60;;;;;;5072674;28;20028;-73
2023/07/14 10:02:24;;;;;;;4.93;1.10;;;27.30;60.80;;;;;;5073056;28;20090;-72
2023/07/14 10:04:54;;;;;;;2.05;1.38;;;27.40;60.50;;;;;;5072753;28;20017;-72
2023/07/14 10:07:35;;;;;;;7.78;1.60;;;27.40;59.30;;;;;;5072742;28;20032;-72
2023/07/14 10:10:09;;;;;;;2.83;1.33;;;27.40;59.80;;;;;;5072791;28;20019;-72
2023/07/14 10:12:43;;;;;;;2.35;1.20;;;27.40;59.40;;;;;;5072926;28;20751;-72
2023/07/14 10:15:32;;;;;;;6.18;1.33;;;27.50;60.10;;;;;;5073090;28;20028;-72
2023/07/14 10:18:15;;;;;;;3.60;1.15;;;27.50;59.90;;;;;;5072584;28;20525;-73
2023/07/14 10:20:42;;;;;;;1.45;1.25;;;27.60;60.40;;;;;;5072658;28;20543;-73
2023/07/14 10:23:16;;;;;;;3.33;1.50;;;27.60;59.70;;;;;;5072652;28;20052;-72
2023/07/14 10:25:49;;;;;;;2.97;1.50;;;27.60;59.60;;;;;;5072914;28;20453;-73
2023/07/14 10:28:28;;;;;;;2.83;1.27;;;27.70;59.70;;;;;;5072627;28;20043;-72
2023/07/14 10:31:22;;;;;;;1.50;1.00;;;27.80;59.40;;;;;;5072341;28;20085;-72
2023/07/14 10:34:10;;;;;;;2.70;1.30;;;27.80;58.80;;;;;;5072521;28;20060;-72
2023/07/14 10:36:38;;;;;;;3.30;1.30;;;27.90;59.20;;;;;;5072516;28;20539;-72
2023/07/14 10:39:56;;;;;;;3.30;1.30;;;27.90;58.90;;;;;;5072350;28;20500;-72
2023/07/14 10:42:29;;;;;;;3.22;1.30;;;27.90;58.40;;;;;;5027769;28;20049;-72
2023/07/14 10:44:57;;;;;;;2.10;1.23;;;27.90;58.40;;;;;;5072471;28;20607;-72
2023/07/14 10:47:52;;;;;;;1.83;1.08;;;28.00;59.00;;;;;;5076290;28;20035;-72
2023/07/14 10:50:31;;;;;;;1.83;1.08;;;28.00;59.50;;;;;;5055158;28;20036;-72
2023/07/14 10:53:07;;;;;;;4.18;1.40;;;28.20;58.70;;;;;;5076224;28;20078;-72
2023/07/14 10:55:36;;;;;;;2.35;1.20;;;28.20;59.70;;;;;;5076204;28;20170;-72
2023/07/14 10:58:11;;;;;;;5.57;1.25;;;28.20;58.60;;;;;;5075899;28;20020;-72
2023/07/14 11:00:47;;;;;;;2.20;1.30;;;28.30;58.70;;;;;;5076034;28;20489;-72
2023/07/14 11:03:15;;;;;;;2.33;1.30;;;28.30;58.70;;;;;;5076037;28;20075;-73
2023/07/14 11:05:55;;;;;;;3.30;1.38;;;28.30;59.00;;;;;;5075892;28;20024;-72
2023/07/14 11:08:22;;;;;;;2.13;1.08;;;28.40;58.40;;;;;;5075920;28;20013;-72
2023/07/14 11:11:03;;;;;;;2.05;1.15;;;28.40;59.20;;;;;;5075885;28;20032;-72
2023/07/14 11:13:39;;;;;;;1.75;1.10;;;28.50;57.90;;;;;;5073610;28;20039;-72
2023/07/14 11:16:37;;;;;;;1.88;1.20;;;28.50;57.50;;;;;;5072760;28;20052;-72
2023/07/14 11:19:16;;;;;;;5.80;1.20;;;28.50;57.90;;;;;;5056758;28;20029;-73
2023/07/14 11:22:00;;;;;;;3.05;1.38;;;28.50;57.60;;;;;;5075639;28;20032;-71
2023/07/14 11:24:44;;;;;;;1.23;1.00;;;28.60;57.50;;;;;;5075447;28;20028;-71
2023/07/14 11:27:29;;;;;;;3.55;1.50;;;28.60;58.60;;;;;;5075616;28;20103;-72
2023/07/14 11:30:03;;;;;;;1.08;0.95;;;28.70;58.70;;;;;;5075550;28;20020;-71
2023/07/14 11:33:11;;;;;;;4.30;1.10;;;28.70;57.40;;;;;;5075442;28;20370;-72
2023/07/14 11:36:01;;;;;;;3.83;1.27;;;28.80;58.60;;;;;;5030725;28;20493;-71
2023/07/14 11:38:33;;;;;;;2.22;1.10;;;28.90;57.70;;;;;;5073647;28;20021;-71
2023/07/14 11:41:00;;;;;;;3.03;1.10;;;28.90;56.50;;;;;;5072563;28;20123;-72
2023/07/14 11:43:29;;;;;;;3.53;1.50;;;28.90;57.10;;;;;;5072320;28;20020;-72
2023/07/14 11:46:04;;;;;;;4.38;1.17;;;29.00;57.00;;;;;;5075380;28;20029;-72
2023/07/14 11:48:37;;;;;;;3.88;1.25;;;29.00;55.90;;;;;;5075278;28;20028;-72
2023/07/14 11:51:16;;;;;;;2.28;1.02;;;29.00;56.20;;;;;;5075245;28;20016;-72
2023/07/14 11:54:03;;;;;;;2.83;1.50;;;29.00;54.20;;;;;;5075063;28;20059;-72
2023/07/14 11:56:35;;;;;;;3.97;1.48;;;29.10;55.90;;;;;;5074697;28;20028;-72
2023/07/14 11:59:05;;;;;;;;;;;29.10;55.90;;;;;;5075376;28;20024;-72
2023/07/14 12:01:32;;;;;;;1.75;1.05;;;29.10;56.30;;;;;;5074767;28;20342;-72
2023/07/14 12:04:19;;;;;;;1.83;1.30;;;29.20;56.60;;;;;;5074812;28;20108;-72
2023/07/14 12:06:48;;;;;;;1.90;1.10;;;29.20;56.90;;;;;;5074761;28;20486;-72
2023/07/14 12:09:19;;;;;;;3.53;1.17;;;29.20;56.20;;;;;;5074658;28;20513;-72
2023/07/14 12:11:57;;;;;;;1.75;1.30;;;29.30;55.40;;;;;;5074928;28;20029;-72
2023/07/14 12:14:35;;;;;;;2.28;1.13;;;29.30;55.60;;;;;;5074858;28;20028;-72
2023/07/14 12:17:02;;;;;;;2.30;1.17;;;29.30;56.40;;;;;;5074520;28;20055;-72
2023/07/14 12:19:34;;;;;;;5.40;1.23;;;29.40;55.90;;;;;;5074546;28;20028;-72
2023/07/14 12:22:09;;;;;;;1.90;1.45;;;29.40;55.40;;;;;;5074562;28;20477;-72
2023/07/14 12:24:56;;;;;;;3.08;1.40;;;29.40;55.90;;;;;;5056351;28;20029;-72
2023/07/14 12:27:35;;;;;;;6.88;1.27;;;29.40;57.40;;;;;;5074331;28;20020;-72
2023/07/14 12:30:21;;;;;;;3.15;1.25;;;29.50;57.50;;;;;;5074249;28;20378;-72
2023/07/14 12:32:47;;;;;;;3.38;1.42;;;29.50;56.20;;;;;;5073703;28;20029;-71
2023/07/14 12:35:15;;;;;;;1.67;1.10;;;29.50;55.50;;;;;;5074190;28;20021;-72
2023/07/14 12:37:41;;;;;;;3.33;1.30;;;29.60;55.60;;;;;;5074181;28;20534;-71
2023/07/14 12:40:34;;;;;;;3.38;1.40;;;29.60;56.20;;;;;;5074123;28;20024;-72
2023/07/14 12:43:01;;;;;;;2.55;1.40;;;29.60;56.60;;;;;;5070383;28;20055;-72
2023/07/14 12:45:27;;;;;;;4.25;1.50;;;29.70;55.50;;;;;;5073820;28;20029;-72
2023/07/14 12:48:00;;;;;;;2.15;1.30;;;29.70;56.00;;;;;;5074047;28;20044;-72
2023/07/14 12:50:27;;;;;;;2.95;1.60;;;29.70;56.80;;;;;;5073739;28;20107;-71
2023/07/14 12:52:53;;;;;;;2.47;1.50;;;29.80;56.40;;;;;;5073469;28;20028;-72
2023/07/14 12:55:23;;;;;;;1.40;1.20;;;29.80;56.20;;;;;;5073829;28;20386;-72
2023/07/14 12:57:49;;;;;;;4.72;1.27;;;29.90;56.10;;;;;;5073665;28;20021;-72
2023/07/14 13:00:25;;;;;;;4.47;1.35;;;29.90;56.50;;;;;;5073614;28;20048;-72
2023/07/14 13:02:52;;;;;;;2.20;1.23;;;29.90;56.10;;;;;;5073728;28;20482;-72
2023/07/14 13:05:20;;;;;;;3.88;1.58;;;29.90;54.90;;;;;;5073445;28;20021;-72
2023/07/14 13:07:52;;;;;;;2.65;1.55;;;30.00;55.60;;;;;;5073309;28;20032;-72